sensor_id;sensor_type;location;lat;lon;timestamp;temperature;humidity
20446;DHT22;10382;49.140;9.234;2023-03-01T00:02:21;1.50;99.90
20446;DHT22;10382;49.140;9.234;2023-03-01T00:04:47;1.50;99.90
20446;DHT22;10382;49.140;9.234;2023-03-01T00:07:16;1.50;99.90
20446;DHT22;10382;49.140;9.234;2023-03-01T00:09:42;1.50;99.90
20446;DHT22;10382;49.140;9.234;2023-03-01T00:12:11;1.40;99.90
20446;DHT22;10382;49.140;9.234;2023-03-01T00:14:38;1.30;99.90
20446;DHT22;10382;49.140;9.234;2023-03-01T00:17:05;1.30;99.90
20446;DHT22;10382;49.140;9.234;2023-03-01T00:19:32;1.40;99.90
20446;DHT22;10382;49.140;9.234;2023-03-01T00:21:59;1.40;99.90
20446;DHT22;10382;49.140;9.234;2023-03-01T00:24:27;1.30;99.90
20446;DHT22;10382;49.140;9.234;2023-03-01T00:26:54;1.40;99.90
20446;DHT22;10382;49.140;9.234;2023-03-01T00:29:22;1.40;99.90
20446;DHT22;10382;49.140;9.234;2023-03-01T00:31:49;1.50;99.90
20446;DHT22;10382;49.140;9.234;2023-03-01T00:34:16;1.50;99.90
20446;DHT22;10382;49.140;9.234;2023-03-01T00:36:43;1.40;99.90
20446;DHT22;10382;49.140;9.234;2023-03-01T00:39:12;1.50;99.90
20446;DHT22;10382;49.140;9.234;2023-03-01T00:41:40;1.50;99.90
20446;DHT22;10382;49.140;9.234;2023-03-01T00:44:07;1.50;99.90
20446;DHT22;10382;49.140;9.234;2023-03-01T00:46:34;1.50;99.90
20446;DHT22;10382;49.140;9.234;2023-03-01T00:49:01;1.40;99.90
20446;DHT22;10382;49.140;9.234;2023-03-01T00:51:30;1.40;99.90
20446;DHT22;10382;49.140;9.234;2023-03-01T00:53:58;1.40;99.90
20446;DHT22;10382;49.140;9.234;2023-03-01T00:56:26;1.40;99.90
20446;DHT22;10382;49.140;9.234;2023-03-01T00:58:54;1.40;99.90
20446;DHT22;10382;49.140;9.234;2023-03-01T01:01:24;1.30;99.90
20446;DHT22;10382;49.140;9.234;2023-03-01T01:03:54;1.30;99.90
20446;DHT22;10382;49.140;9.234;2023-03-01T01:06:23;1.30;99.90
20446;DHT22;10382;49.140;9.234;2023-03-01T01:08:52;1.30;99.90
20446;DHT22;10382;49.140;9.234;2023-03-01T01:11:20;1.10;99.90
20446;DHT22;10382;49.140;9.234;2023-03-01T01:13:47;1.10;99.90
20446;DHT22;10382;49.140;9.234;2023-03-01T01:16:17;1.00;99.90
20446;DHT22;10382;49.140;9.234;2023-03-01T01:18:45;0.90;99.90
20446;DHT22;10382;49.140;9.234;2023-03-01T01:21:14;1.00;99.90
20446;DHT22;10382;49.140;9.234;2023-03-01T01:23:42;1.00;99.90
20446;DHT22;10382;49.140;9.234;2023-03-01T01:26:11;1.00;99.90
20446;DHT22;10382;49.140;9.234;2023-03-01T01:28:38;0.90;99.90
20446;DHT22;10382;49.140;9.234;2023-03-01T01:31:06;0.90;99.90
20446;DHT22;10382;49.140;9.234;2023-03-01T01:33:34;0.90;99.90
20446;DHT22;10382;49.140;9.234;2023-03-01T01:36:03;0.90;99.90
20446;DHT22;10382;49.140;9.234;2023-03-01T01:38:30;0.90;99.90
20446;DHT22;10382;49.140;9.234;2023-03-01T01:40:57;0.90;99.90
20446;DHT22;10382;49.140;9.234;2023-03-01T01:43:28;0.90;99.90
20446;DHT22;10382;49.140;9.234;2023-03-01T01:45:56;0.80;99.90
20446;DHT22;10382;49.140;9.234;2023-03-01T01:48:27;0.80;99.90
20446;DHT22;10382;49.140;9.234;2023-03-01T01:51:09;0.70;99.90
20446;DHT22;10382;49.140;9.234;2023-03-01T01:53:38;0.60;99.90
20446;DHT22;10382;49.140;9.234;2023-03-01T01:56:08;0.60;99.90
20446;DHT22;10382;49.140;9.234;2023-03-01T01:58:37;0.50;99.90
20446;DHT22;10382;49.140;9.234;2023-03-01T02:01:05;0.50;99.90
20446;DHT22;10382;49.140;9.234;2023-03-01T02:03:33;0.40;99.90
20446;DHT22;10382;49.140;9.234;2023-03-01T02:06:05;0.40;99.90
20446;DHT22;10382;49.140;9.234;2023-03-01T02:08:37;0.40;99.90
20446;DHT22;10382;49.140;9.234;2023-03-01T02:11:05;0.40;99.90
20446;DHT22;10382;49.140;9.234;2023-03-01T02:13:33;0.40;99.90
20446;DHT22;10382;49.140;9.234;2023-03-01T02:16:03;0.40;99.90
20446;DHT22;10382;49.140;9.234;2023-03-01T02:18:30;0.50;99.90
20446;DHT22;10382;49.140;9.234;2023-03-01T02:21:16;0.50;99.90
20446;DHT22;10382;49.140;9.234;2023-03-01T02:23:45;0.60;99.90
20446;DHT22;10382;49.140;9.234;2023-03-01T02:26:19;0.60;99.90
20446;DHT22;10382;49.140;9.234;2023-03-01T02:28:48;0.60;99.90
20446;DHT22;10382;49.140;9.234;2023-03-01T02:31:18;0.70;99.90
20446;DHT22;10382;49.140;9.234;2023-03-01T02:34:02;0.60;99.90
20446;DHT22;10382;49.140;9.234;2023-03-01T02:36:32;0.50;99.90
20446;DHT22;10382;49.140;9.234;2023-03-01T02:39:03;0.50;99.90
20446;DHT22;10382;49.140;9.234;2023-03-01T02:41:34;0.40;99.90
20446;DHT22;10382;49.140;9.234;2023-03-01T02:44:04;0.40;99.90
20446;DHT22;10382;49.140;9.234;2023-03-01T02:46:31;0.40;99.90
20446;DHT22;10382;49.140;9.234;2023-03-01T02:48:58;0.30;99.90
20446;DHT22;10382;49.140;9.234;2023-03-01T02:51:34;0.20;99.90
20446;DHT22;10382;49.140;9.234;2023-03-01T02:54:12;0.20;99.90
20446;DHT22;10382;49.140;9.234;2023-03-01T02:56:43;0.20;99.90
20446;DHT22;10382;49.140;9.234;2023-03-01T02:59:15;0.20;99.90
20446;DHT22;10382;49.140;9.234;2023-03-01T03:01:43;0.20;99.90
20446;DHT22;10382;49.140;9.234;2023-03-01T03:04:12;0.20;99.90
20446;DHT22;10382;49.140;9.234;2023-03-01T03:06:42;0.20;99.90
20446;DHT22;10382;49.140;9.234;2023-03-01T03:09:09;0.20;99.90
20446;DHT22;10382;49.140;9.234;2023-03-01T03:11:36;0.20;99.90
20446;DHT22;10382;49.140;9.234;2023-03-01T03:14:04;0.20;99.90
20446;DHT22;10382;49.140;9.234;2023-03-01T03:16:32;0.20;99.90
20446;DHT22;10382;49.140;9.234;2023-03-01T03:18:59;0.10;99.90
20446;DHT22;10382;49.140;9.234;2023-03-01T03:21:30;0.10;99.90
20446;DHT22;10382;49.140;9.234;2023-03-01T03:23:58;0.10;99.90
20446;DHT22;10382;49.140;9.234;2023-03-01T03:26:25;0.10;99.90
20446;DHT22;10382;49.140;9.234;2023-03-01T03:28:52;0.10;99.90
20446;DHT22;10382;49.140;9.234;2023-03-01T03:31:19;0.20;99.90
20446;DHT22;10382;49.140;9.234;2023-03-01T03:33:47;0.20;99.90
20446;DHT22;10382;49.140;9.234;2023-03-01T03:36:15;0.30;99.90
20446;DHT22;10382;49.140;9.234;2023-03-01T03:38:43;0.30;99.90
20446;DHT22;10382;49.140;9.234;2023-03-01T03:41:12;0.40;99.90
20446;DHT22;10382;49.140;9.234;2023-03-01T03:43:43;0.40;99.90
20446;DHT22;10382;49.140;9.234;2023-03-01T03:46:11;0.50;99.90
20446;DHT22;10382;49.140;9.234;2023-03-01T03:48:39;0.40;99.90
20446;DHT22;10382;49.140;9.234;2023-03-01T03:51:09;0.40;99.90
20446;DHT22;10382;49.140;9.234;2023-03-01T03:53:36;0.50;99.90
20446;DHT22;10382;49.140;9.234;2023-03-01T03:56:04;0.40;99.90
20446;DHT22;10382;49.140;9.234;2023-03-01T03:58:31;0.40;99.90
20446;DHT22;10382;49.140;9.234;2023-03-01T04:00:58;0.50;99.90
20446;DHT22;10382;49.140;9.234;2023-03-01T04:03:27;0.60;99.90
20446;DHT22;10382;49.140;9.234;2023-03-01T04:05:56;0.70;99.90
20446;DHT22;10382;49.140;9.234;2023-03-01T04:08:25;0.80;99.90
20446;DHT22;10382;49.140;9.234;2023-03-01T04:10:57;0.90;99.90
20446;DHT22;10382;49.140;9.234;2023-03-01T04:13:24;0.90;99.90
20446;DHT22;10382;49.140;9.234;2023-03-01T04:15:52;0.90;99.90
20446;DHT22;10382;49.140;9.234;2023-03-01T04:18:20;0.90;99.90
20446;DHT22;10382;49.140;9.234;2023-03-01T04:20:47;0.90;99.90
20446;DHT22;10382;49.140;9.234;2023-03-01T04:23:17;0.80;99.90
20446;DHT22;10382;49.140;9.234;2023-03-01T04:25:48;0.90;99.90
20446;DHT22;10382;49.140;9.234;2023-03-01T04:28:19;0.80;99.90
20446;DHT22;10382;49.140;9.234;2023-03-01T04:30:46;0.90;99.90
20446;DHT22;10382;49.140;9.234;2023-03-01T04:33:13;0.90;99.90
20446;DHT22;10382;49.140;9.234;2023-03-01T04:35:40;0.90;99.90
20446;DHT22;10382;49.140;9.234;2023-03-01T04:38:08;0.80;99.90
20446;DHT22;10382;49.140;9.234;2023-03-01T04:40:35;0.80;99.90
20446;DHT22;10382;49.140;9.234;2023-03-01T04:43:04;0.90;99.90
20446;DHT22;10382;49.140;9.234;2023-03-01T04:45:32;0.80;99.90
20446;DHT22;10382;49.140;9.234;2023-03-01T04:48:00;0.70;99.90
20446;DHT22;10382;49.140;9.234;2023-03-01T04:50:27;0.60;99.90
20446;DHT22;10382;49.140;9.234;2023-03-01T04:52:54;0.60;99.90
20446;DHT22;10382;49.140;9.234;2023-03-01T04:55:24;0.50;99.90
20446;DHT22;10382;49.140;9.234;2023-03-01T04:57:51;0.40;99.90
20446;DHT22;10382;49.140;9.234;2023-03-01T05:00:20;0.30;99.90
20446;DHT22;10382;49.140;9.234;2023-03-01T05:02:49;0.20;99.90
20446;DHT22;10382;49.140;9.234;2023-03-01T05:05:20;0.20;99.90
20446;DHT22;10382;49.140;9.234;2023-03-01T05:07:51;0.20;99.90
20446;DHT22;10382;49.140;9.234;2023-03-01T05:10:18;0.30;99.90
20446;DHT22;10382;49.140;9.234;2023-03-01T05:12:44;0.30;99.90
20446;DHT22;10382;49.140;9.234;2023-03-01T05:15:12;0.30;99.90
20446;DHT22;10382;49.140;9.234;2023-03-01T05:17:41;0.30;99.90
20446;DHT22;10382;49.140;9.234;2023-03-01T05:20:09;0.30;99.90
20446;DHT22;10382;49.140;9.234;2023-03-01T05:22:36;0.10;99.90
20446;DHT22;10382;49.140;9.234;2023-03-01T05:25:04;0.20;99.90
20446;DHT22;10382;49.140;9.234;2023-03-01T05:27:32;0.20;99.90
20446;DHT22;10382;49.140;9.234;2023-03-01T05:29:59;0.20;99.90
20446;DHT22;10382;49.140;9.234;2023-03-01T05:32:41;0.10;99.90
20446;DHT22;10382;49.140;9.234;2023-03-01T05:35:11;0.00;99.90
20446;DHT22;10382;49.140;9.234;2023-03-01T05:37:41;-0.10;99.90
20446;DHT22;10382;49.140;9.234;2023-03-01T05:40:09;-0.10;99.90
20446;DHT22;10382;49.140;9.234;2023-03-01T05:42:42;-0.10;99.90
20446;DHT22;10382;49.140;9.234;2023-03-01T05:45:09;0.00;99.90
20446;DHT22;10382;49.140;9.234;2023-03-01T05:47:38;0.00;99.90
20446;DHT22;10382;49.140;9.234;2023-03-01T05:50:11;0.10;99.90
20446;DHT22;10382;49.140;9.234;2023-03-01T05:52:38;0.10;99.90
20446;DHT22;10382;49.140;9.234;2023-03-01T05:55:06;0.10;99.90
20446;DHT22;10382;49.140;9.234;2023-03-01T05:57:33;0.20;99.90
20446;DHT22;10382;49.140;9.234;2023-03-01T06:00:00;0.10;99.90
20446;DHT22;10382;49.140;9.234;2023-03-01T06:02:27;0.10;99.90
20446;DHT22;10382;49.140;9.234;2023-03-01T06:04:54;0.10;99.90
20446;DHT22;10382;49.140;9.234;2023-03-01T06:07:23;0.10;99.90
20446;DHT22;10382;49.140;9.234;2023-03-01T06:09:50;0.20;99.90
20446;DHT22;10382;49.140;9.234;2023-03-01T06:12:16;0.20;99.90
20446;DHT22;10382;49.140;9.234;2023-03-01T06:14:45;0.20;99.90
20446;DHT22;10382;49.140;9.234;2023-03-01T06:17:12;0.30;99.90
20446;DHT22;10382;49.140;9.234;2023-03-01T06:19:39;0.30;99.90
20446;DHT22;10382;49.140;9.234;2023-03-01T06:22:06;0.30;99.90
20446;DHT22;10382;49.140;9.234;2023-03-01T06:24:35;0.30;99.90
20446;DHT22;10382;49.140;9.234;2023-03-01T06:27:02;0.30;99.90
20446;DHT22;10382;49.140;9.234;2023-03-01T06:29:28;0.30;99.90
20446;DHT22;10382;49.140;9.234;2023-03-01T06:31:55;0.40;99.90
20446;DHT22;10382;49.140;9.234;2023-03-01T06:34:22;0.50;99.90
20446;DHT22;10382;49.140;9.234;2023-03-01T06:36:49;0.50;99.90
20446;DHT22;10382;49.140;9.234;2023-03-01T06:39:16;0.40;99.90
20446;DHT22;10382;49.140;9.234;2023-03-01T06:41:44;0.50;99.90
20446;DHT22;10382;49.140;9.234;2023-03-01T06:44:11;0.50;99.90
20446;DHT22;10382;49.140;9.234;2023-03-01T06:46:38;0.70;99.90
20446;DHT22;10382;49.140;9.234;2023-03-01T06:49:05;0.80;99.90
20446;DHT22;10382;49.140;9.234;2023-03-01T06:51:35;0.80;99.90
20446;DHT22;10382;49.140;9.234;2023-03-01T06:54:02;0.70;99.90
20446;DHT22;10382;49.140;9.234;2023-03-01T06:56:29;0.80;99.90
20446;DHT22;10382;49.140;9.234;2023-03-01T06:58:57;0.80;99.90
20446;DHT22;10382;49.140;9.234;2023-03-01T07:01:25;0.80;99.90
20446;DHT22;10382;49.140;9.234;2023-03-01T07:03:52;0.80;99.90
20446;DHT22;10382;49.140;9.234;2023-03-01T07:06:19;0.90;99.90
20446;DHT22;10382;49.140;9.234;2023-03-01T07:08:46;1.10;99.90
20446;DHT22;10382;49.140;9.234;2023-03-01T07:11:13;1.40;99.90
20446;DHT22;10382;49.140;9.234;2023-03-01T07:13:40;1.80;99.90
20446;DHT22;10382;49.140;9.234;2023-03-01T07:16:08;2.10;99.90
20446;DHT22;10382;49.140;9.234;2023-03-01T07:18:35;2.30;99.90
20446;DHT22;10382;49.140;9.234;2023-03-01T07:21:06;2.50;99.90
20446;DHT22;10382;49.140;9.234;2023-03-01T07:23:33;2.70;99.90
20446;DHT22;10382;49.140;9.234;2023-03-01T07:25:59;3.00;99.90
20446;DHT22;10382;49.140;9.234;2023-03-01T07:28:27;3.40;99.90
20446;DHT22;10382;49.140;9.234;2023-03-01T07:30:54;3.80;99.90
20446;DHT22;10382;49.140;9.234;2023-03-01T07:33:22;4.20;99.90
20446;DHT22;10382;49.140;9.234;2023-03-01T07:35:56;4.10;99.90
20446;DHT22;10382;49.140;9.234;2023-03-01T07:38:23;4.10;99.90
20446;DHT22;10382;49.140;9.234;2023-03-01T07:40:50;4.00;99.90
20446;DHT22;10382;49.140;9.234;2023-03-01T07:43:17;3.90;99.90
20446;DHT22;10382;49.140;9.234;2023-03-01T07:45:44;3.70;99.90
20446;DHT22;10382;49.140;9.234;2023-03-01T07:48:10;3.70;99.90
20446;DHT22;10382;49.140;9.234;2023-03-01T07:50:39;4.00;99.90
20446;DHT22;10382;49.140;9.234;2023-03-01T07:53:05;4.20;99.90
20446;DHT22;10382;49.140;9.234;2023-03-01T07:55:32;4.70;99.90
20446;DHT22;10382;49.140;9.234;2023-03-01T07:57:59;4.90;99.90
20446;DHT22;10382;49.140;9.234;2023-03-01T08:00:26;5.00;99.90
20446;DHT22;10382;49.140;9.234;2023-03-01T08:02:53;4.90;99.90
20446;DHT22;10382;49.140;9.234;2023-03-01T08:05:20;5.40;99.90
20446;DHT22;10382;49.140;9.234;2023-03-01T08:07:48;5.50;99.90
20446;DHT22;10382;49.140;9.234;2023-03-01T08:10:16;5.70;99.90
20446;DHT22;10382;49.140;9.234;2023-03-01T08:12:43;6.20;99.90
20446;DHT22;10382;49.140;9.234;2023-03-01T08:15:10;6.40;99.90
20446;DHT22;10382;49.140;9.234;2023-03-01T08:17:37;6.40;99.90
20446;DHT22;10382;49.140;9.234;2023-03-01T08:20:05;6.80;99.90
20446;DHT22;10382;49.140;9.234;2023-03-01T08:22:32;6.80;99.90
20446;DHT22;10382;49.140;9.234;2023-03-01T08:25:00;6.90;99.90
20446;DHT22;10382;49.140;9.234;2023-03-01T08:27:27;7.40;99.90
20446;DHT22;10382;49.140;9.234;2023-03-01T08:29:54;8.00;98.80
20446;DHT22;10382;49.140;9.234;2023-03-01T08:32:21;8.70;96.30
20446;DHT22;10382;49.140;9.234;2023-03-01T08:34:48;9.30;94.10
20446;DHT22;10382;49.140;9.234;2023-03-01T08:37:15;9.80;92.40
20446;DHT22;10382;49.140;9.234;2023-03-01T08:39:41;10.10;85.00
20446;DHT22;10382;49.140;9.234;2023-03-01T08:42:09;9.70;88.60
20446;DHT22;10382;49.140;9.234;2023-03-01T08:44:36;9.90;86.80
20446;DHT22;10382;49.140;9.234;2023-03-01T08:47:03;10.10;83.90
20446;DHT22;10382;49.140;9.234;2023-03-01T08:49:30;10.10;80.90
20446;DHT22;10382;49.140;9.234;2023-03-01T08:51:58;10.50;82.30
20446;DHT22;10382;49.140;9.234;2023-03-01T08:54:24;11.10;78.00
20446;DHT22;10382;49.140;9.234;2023-03-01T08:56:51;11.50;73.90
20446;DHT22;10382;49.140;9.234;2023-03-01T08:59:19;11.80;69.20
20446;DHT22;10382;49.140;9.234;2023-03-01T09:01:46;12.00;69.00
20446;DHT22;10382;49.140;9.234;2023-03-01T09:04:14;12.10;68.40
20446;DHT22;10382;49.140;9.234;2023-03-01T09:06:41;12.40;67.10
20446;DHT22;10382;49.140;9.234;2023-03-01T09:09:13;12.90;63.30
20446;DHT22;10382;49.140;9.234;2023-03-01T09:11:41;12.60;60.70
20446;DHT22;10382;49.140;9.234;2023-03-01T09:14:08;12.40;61.40
20446;DHT22;10382;49.140;9.234;2023-03-01T09:16:36;12.10;62.40
20446;DHT22;10382;49.140;9.234;2023-03-01T09:19:03;12.70;62.90
20446;DHT22;10382;49.140;9.234;2023-03-01T09:21:30;13.60;60.20
20446;DHT22;10382;49.140;9.234;2023-03-01T09:23:57;14.10;57.70
20446;DHT22;10382;49.140;9.234;2023-03-01T09:26:24;14.50;57.30
20446;DHT22;10382;49.140;9.234;2023-03-01T09:28:53;15.20;56.10
20446;DHT22;10382;49.140;9.234;2023-03-01T09:31:22;15.50;54.00
20446;DHT22;10382;49.140;9.234;2023-03-01T09:33:52;15.80;52.80
20446;DHT22;10382;49.140;9.234;2023-03-01T09:36:21;15.20;51.70
20446;DHT22;10382;49.140;9.234;2023-03-01T09:38:49;14.50;52.50
20446;DHT22;10382;49.140;9.234;2023-03-01T09:41:31;13.30;53.50
20446;DHT22;10382;49.140;9.234;2023-03-01T09:44:03;13.80;55.70
20446;DHT22;10382;49.140;9.234;2023-03-01T09:46:40;14.80;55.00
20446;DHT22;10382;49.140;9.234;2023-03-01T09:49:14;15.90;53.40
20446;DHT22;10382;49.140;9.234;2023-03-01T09:51:43;16.80;50.80
20446;DHT22;10382;49.140;9.234;2023-03-01T09:54:14;17.60;49.70
20446;DHT22;10382;49.140;9.234;2023-03-01T09:56:46;18.50;48.60
20446;DHT22;10382;49.140;9.234;2023-03-01T09:59:22;19.40;47.50
20446;DHT22;10382;49.140;9.234;2023-03-01T10:01:55;20.10;45.80
20446;DHT22;10382;49.140;9.234;2023-03-01T10:04:41;20.90;44.10
20446;DHT22;10382;49.140;9.234;2023-03-01T10:07:21;21.00;42.80
20446;DHT22;10382;49.140;9.234;2023-03-01T10:09:49;21.70;42.30
20446;DHT22;10382;49.140;9.234;2023-03-01T10:12:18;22.00;40.60
20446;DHT22;10382;49.140;9.234;2023-03-01T10:14:53;22.30;40.70
20446;DHT22;10382;49.140;9.234;2023-03-01T10:17:27;22.50;39.70
20446;DHT22;10382;49.140;9.234;2023-03-01T10:20:14;22.60;39.20
20446;DHT22;10382;49.140;9.234;2023-03-01T10:22:42;22.40;38.80
20446;DHT22;10382;49.140;9.234;2023-03-01T10:25:14;22.30;38.90
20446;DHT22;10382;49.140;9.234;2023-03-01T10:27:47;22.40;38.40
20446;DHT22;10382;49.140;9.234;2023-03-01T10:30:19;21.20;39.00
20446;DHT22;10382;49.140;9.234;2023-03-01T10:32:48;21.40;39.40
20446;DHT22;10382;49.140;9.234;2023-03-01T10:35:21;21.60;38.70
20446;DHT22;10382;49.140;9.234;2023-03-01T10:38:02;22.00;38.80
20446;DHT22;10382;49.140;9.234;2023-03-01T10:40:29;22.60;38.80
20446;DHT22;10382;49.140;9.234;2023-03-01T10:42:58;23.10;37.50
20446;DHT22;10382;49.140;9.234;2023-03-01T10:45:35;23.00;37.40
20446;DHT22;10382;49.140;9.234;2023-03-01T10:48:13;22.70;37.00
20446;DHT22;10382;49.140;9.234;2023-03-01T10:50:43;23.20;37.50
20446;DHT22;10382;49.140;9.234;2023-03-01T10:53:24;23.80;37.00
20446;DHT22;10382;49.140;9.234;2023-03-01T10:56:04;24.20;36.30
20446;DHT22;10382;49.140;9.234;2023-03-01T10:58:32;24.90;35.80
20446;DHT22;10382;49.140;9.234;2023-03-01T11:01:01;25.10;35.50
20446;DHT22;10382;49.140;9.234;2023-03-01T11:03:29;23.90;35.30
20446;DHT22;10382;49.140;9.234;2023-03-01T11:06:01;23.80;35.40
20446;DHT22;10382;49.140;9.234;2023-03-01T11:08:37;23.10;35.40
20446;DHT22;10382;49.140;9.234;2023-03-01T11:11:18;22.40;36.00
20446;DHT22;10382;49.140;9.234;2023-03-01T11:13:51;23.00;36.80
20446;DHT22;10382;49.140;9.234;2023-03-01T11:16:27;23.80;36.10
20446;DHT22;10382;49.140;9.234;2023-03-01T11:19:03;24.40;35.80
20446;DHT22;10382;49.140;9.234;2023-03-01T11:21:33;24.90;35.20
20446;DHT22;10382;49.140;9.234;2023-03-01T11:24:02;25.40;34.70
20446;DHT22;10382;49.140;9.234;2023-03-01T11:26:33;25.40;34.10
20446;DHT22;10382;49.140;9.234;2023-03-01T11:29:05;24.90;34.60
20446;DHT22;10382;49.140;9.234;2023-03-01T11:31:33;25.20;34.80
20446;DHT22;10382;49.140;9.234;2023-03-01T11:34:07;25.60;34.80
20446;DHT22;10382;49.140;9.234;2023-03-01T11:36:41;26.20;33.90
20446;DHT22;10382;49.140;9.234;2023-03-01T11:39:20;26.40;33.60
20446;DHT22;10382;49.140;9.234;2023-03-01T11:42:00;26.50;33.80
20446;DHT22;10382;49.140;9.234;2023-03-01T11:44:30;26.80;33.40
20446;DHT22;10382;49.140;9.234;2023-03-01T11:47:21;27.10;33.40
20446;DHT22;10382;49.140;9.234;2023-03-01T11:50:06;27.40;32.80
20446;DHT22;10382;49.140;9.234;2023-03-01T11:52:45;26.70;32.50
20446;DHT22;10382;49.140;9.234;2023-03-01T11:55:24;26.00;33.10
20446;DHT22;10382;49.140;9.234;2023-03-01T11:58:25;26.40;33.00
20446;DHT22;10382;49.140;9.234;2023-03-01T12:01:02;26.30;32.70
20446;DHT22;10382;49.140;9.234;2023-03-01T12:03:46;26.10;32.60
20446;DHT22;10382;49.140;9.234;2023-03-01T12:06:39;26.10;32.80
20446;DHT22;10382;49.140;9.234;2023-03-01T12:09:25;25.20;33.10
20446;DHT22;10382;49.140;9.234;2023-03-01T12:12:24;23.80;33.20
20446;DHT22;10382;49.140;9.234;2023-03-01T12:17:56;24.40;34.00
20446;DHT22;10382;49.140;9.234;2023-03-01T12:20:29;24.80;34.00
20446;DHT22;10382;49.140;9.234;2023-03-01T12:23:16;25.50;33.50
20446;DHT22;10382;49.140;9.234;2023-03-01T12:25:54;26.10;33.20
20446;DHT22;10382;49.140;9.234;2023-03-01T12:28:46;25.30;33.10
20446;DHT22;10382;49.140;9.234;2023-03-01T12:31:44;25.40;33.20
20446;DHT22;10382;49.140;9.234;2023-03-01T12:34:29;25.60;33.00
20446;DHT22;10382;49.140;9.234;2023-03-01T12:37:19;25.80;33.40
20446;DHT22;10382;49.140;9.234;2023-03-01T12:40:01;26.30;32.50
20446;DHT22;10382;49.140;9.234;2023-03-01T12:42:38;26.50;32.30
20446;DHT22;10382;49.140;9.234;2023-03-01T12:45:26;26.50;32.20
20446;DHT22;10382;49.140;9.234;2023-03-01T12:48:08;26.20;32.20
20446;DHT22;10382;49.140;9.234;2023-03-01T12:50:41;26.40;32.10
20446;DHT22;10382;49.140;9.234;2023-03-01T12:53:19;24.50;32.10
20446;DHT22;10382;49.140;9.234;2023-03-01T12:55:49;23.50;33.20
20446;DHT22;10382;49.140;9.234;2023-03-01T12:58:24;23.60;34.20
20446;DHT22;10382;49.140;9.234;2023-03-01T13:01:08;23.90;34.40
20446;DHT22;10382;49.140;9.234;2023-03-01T13:04:03;24.80;33.80
20446;DHT22;10382;49.140;9.234;2023-03-01T13:06:37;23.90;33.70
20446;DHT22;10382;49.140;9.234;2023-03-01T13:09:14;23.80;33.50
20446;DHT22;10382;49.140;9.234;2023-03-01T13:11:44;22.90;33.30
20446;DHT22;10382;49.140;9.234;2023-03-01T13:14:37;22.80;34.30
20446;DHT22;10382;49.140;9.234;2023-03-01T13:17:32;23.30;34.30
20446;DHT22;10382;49.140;9.234;2023-03-01T13:19:59;23.70;34.00
20446;DHT22;10382;49.140;9.234;2023-03-01T13:22:30;23.80;33.90
20446;DHT22;10382;49.140;9.234;2023-03-01T13:25:02;23.10;33.60
20446;DHT22;10382;49.140;9.234;2023-03-01T13:27:29;22.90;34.00
20446;DHT22;10382;49.140;9.234;2023-03-01T13:29:59;22.90;34.40
20446;DHT22;10382;49.140;9.234;2023-03-01T13:32:30;23.20;34.50
20446;DHT22;10382;49.140;9.234;2023-03-01T13:34:59;23.50;34.20
20446;DHT22;10382;49.140;9.234;2023-03-01T13:37:31;23.20;33.90
20446;DHT22;10382;49.140;9.234;2023-03-01T13:40:01;22.80;34.50
20446;DHT22;10382;49.140;9.234;2023-03-01T13:42:39;22.80;34.10
20446;DHT22;10382;49.140;9.234;2023-03-01T13:45:35;23.10;34.20
20446;DHT22;10382;49.140;9.234;2023-03-01T13:48:04;23.30;34.30
20446;DHT22;10382;49.140;9.234;2023-03-01T13:50:43;23.20;34.10
20446;DHT22;10382;49.140;9.234;2023-03-01T13:53:15;23.20;34.60
20446;DHT22;10382;49.140;9.234;2023-03-01T13:55:45;23.50;34.00
20446;DHT22;10382;49.140;9.234;2023-03-01T13:58:22;23.60;33.80
20446;DHT22;10382;49.140;9.234;2023-03-01T14:00:58;22.90;33.80
20446;DHT22;10382;49.140;9.234;2023-03-01T14:03:25;22.90;34.30
20446;DHT22;10382;49.140;9.234;2023-03-01T14:06:06;23.30;34.50
20446;DHT22;10382;49.140;9.234;2023-03-01T14:08:35;22.70;34.00
20446;DHT22;10382;49.140;9.234;2023-03-01T14:14:23;21.20;34.40
20446;DHT22;10382;49.140;9.234;2023-03-01T14:16:58;20.10;35.60
20446;DHT22;10382;49.140;9.234;2023-03-01T14:19:29;19.80;36.20
20446;DHT22;10382;49.140;9.234;2023-03-01T14:22:03;18.60;37.00
20446;DHT22;10382;49.140;9.234;2023-03-01T14:24:31;18.90;37.50
20446;DHT22;10382;49.140;9.234;2023-03-01T14:27:01;19.50;37.30
20446;DHT22;10382;49.140;9.234;2023-03-01T14:29:34;20.30;36.90
20446;DHT22;10382;49.140;9.234;2023-03-01T14:32:17;20.70;36.20
20446;DHT22;10382;49.140;9.234;2023-03-01T14:34:46;21.00;35.90
20446;DHT22;10382;49.140;9.234;2023-03-01T14:37:22;21.10;35.50
20446;DHT22;10382;49.140;9.234;2023-03-01T14:39:49;20.80;35.30
20446;DHT22;10382;49.140;9.234;2023-03-01T14:42:16;20.60;35.80
20446;DHT22;10382;49.140;9.234;2023-03-01T14:44:47;20.70;35.90
20446;DHT22;10382;49.140;9.234;2023-03-01T14:47:20;20.20;35.50
20446;DHT22;10382;49.140;9.234;2023-03-01T14:49:52;19.50;36.40
20446;DHT22;10382;49.140;9.234;2023-03-01T14:52:22;19.50;36.90
20446;DHT22;10382;49.140;9.234;2023-03-01T14:54:53;19.60;36.70
20446;DHT22;10382;49.140;9.234;2023-03-01T14:57:23;19.70;36.50
20446;DHT22;10382;49.140;9.234;2023-03-01T14:59:52;19.50;36.60
20446;DHT22;10382;49.140;9.234;2023-03-01T15:02:23;19.40;37.00
20446;DHT22;10382;49.140;9.234;2023-03-01T15:04:52;19.10;37.10
20446;DHT22;10382;49.140;9.234;2023-03-01T15:07:19;19.00;37.60
20446;DHT22;10382;49.140;9.234;2023-03-01T15:09:47;18.70;37.20
20446;DHT22;10382;49.140;9.234;2023-03-01T15:12:37;18.40;37.60
20446;DHT22;10382;49.140;9.234;2023-03-01T15:18:13;17.60;38.30
20446;DHT22;10382;49.140;9.234;2023-03-01T15:20:40;17.40;38.70
20446;DHT22;10382;49.140;9.234;2023-03-01T15:23:19;17.60;39.00
20446;DHT22;10382;49.140;9.234;2023-03-01T15:25:46;17.90;38.80
20446;DHT22;10382;49.140;9.234;2023-03-01T15:28:22;17.90;38.40
20446;DHT22;10382;49.140;9.234;2023-03-01T15:30:54;18.20;38.60
20446;DHT22;10382;49.140;9.234;2023-03-01T15:33:37;18.40;38.20
20446;DHT22;10382;49.140;9.234;2023-03-01T15:36:32;18.40;37.90
20446;DHT22;10382;49.140;9.234;2023-03-01T15:39:00;18.20;38.00
20446;DHT22;10382;49.140;9.234;2023-03-01T15:41:29;17.90;38.20
20446;DHT22;10382;49.140;9.234;2023-03-01T15:43:57;17.40;38.50
20446;DHT22;10382;49.140;9.234;2023-03-01T15:46:27;16.90;38.50
20446;DHT22;10382;49.140;9.234;2023-03-01T15:48:58;16.70;39.10
20446;DHT22;10382;49.140;9.234;2023-03-01T15:51:31;16.50;39.50
20446;DHT22;10382;49.140;9.234;2023-03-01T15:54:01;16.30;39.70
20446;DHT22;10382;49.140;9.234;2023-03-01T15:56:28;16.40;40.10
20446;DHT22;10382;49.140;9.234;2023-03-01T15:58:59;16.50;40.20
20446;DHT22;10382;49.140;9.234;2023-03-01T16:01:27;16.40;39.90
20446;DHT22;10382;49.140;9.234;2023-03-01T16:03:55;16.30;40.20
20446;DHT22;10382;49.140;9.234;2023-03-01T16:06:24;16.00;40.10
20446;DHT22;10382;49.140;9.234;2023-03-01T16:08:50;15.80;40.40
20446;DHT22;10382;49.140;9.234;2023-03-01T16:11:19;15.50;40.80
20446;DHT22;10382;49.140;9.234;2023-03-01T16:13:46;15.20;41.00